Time;durP1;ratioP1;P1;durP2;ratioP2;P2;SDS_P1;SDS_P2;PMS_P1;PMS_P2;Temp;Humidity;BMP_temperature;BMP_pressure;BME280_temperature;BME280_humidity;BME280_pressure;Samples;Min_cycle;Max_cycle;Signal;HPM_P1;HPM_P2
2023/05/11 00:00:36;;;;;;;2.83;1.10;;;;;12.50;98360.00;;;;5057759;28;20049;-67
2023/05/11 00:03:02;;;;;;;3.70;1.17;;;;;12.50;98362.00;;;;5059063;28;20047;-67
2023/05/11 00:05:29;;;;;;;1.20;0.80;;;;;12.50;98358.00;;;;5059095;28;20063;-67
2023/05/11 00:07:56;;;;;;;1.15;0.90;;;;;12.40;98355.00;;;;5059554;28;20052;-67
2023/05/11 00:10:22;;;;;;;2.00;1.08;;;;;12.40;98350.00;;;;5058814;28;20091;-67
2023/05/11 00:12:49;;;;;;;6.78;1.23;;;;;12.50;98347.00;;;;5059109;28;20048;-68
2023/05/11 00:15:15;;;;;;;1.23;1.10;;;;;12.50;98355.00;;;;5058342;28;20053;-68
2023/05/11 00:17:42;;;;;;;2.75;1.50;;;;;12.50;98345.00;;;;5059116;28;20072;-68
2023/05/11 00:20:09;;;;;;;2.45;1.35;;;;;12.50;98348.00;;;;5057310;28;20045;-67
2023/05/11 00:22:35;;;;;;;2.70;1.40;;;;;12.50;98347.00;;;;5057857;28;20495;-67
2023/05/11 00:25:02;;;;;;;1.55;1.20;;;;;12.40;98344.00;;;;5057902;28;20099;-67
2023/05/11 00:27:29;;;;;;;1.65;1.13;;;;;12.40;98347.00;;;;5058960;28;20517;-67
2023/05/11 00:29:55;;;;;;;4.28;1.35;;;;;12.30;98342.00;;;;5057356;28;20557;-67
2023/05/11 00:32:22;;;;;;;4.05;1.33;;;;;12.40;98339.00;;;;5059016;28;20052;-67
2023/05/11 00:34:49;;;;;;;2.33;1.30;;;;;12.40;98335.00;;;;5057450;28;20470;-67
2023/05/11 00:37:15;;;;;;;1.77;1.20;;;;;12.40;98339.00;;;;5057372;28;20055;-67
2023/05/11 00:39:42;;;;;;;2.05;1.30;;;;;12.20;98343.00;;;;5057376;28;20418;-67
2023/05/11 00:42:10;;;;;;;3.95;1.50;;;;;12.10;98337.00;;;;5057400;28;20067;-68
2023/05/11 00:44:36;;;;;;;3.25;1.10;;;;;11.90;98344.00;;;;5058015;28;20045;-68
2023/05/11 00:47:03;;;;;;;3.17;1.17;;;;;11.90;98329.00;;;;5056721;28;20083;-68
2023/05/11 00:49:30;;;;;;;2.75;1.50;;;;;12.00;98338.00;;;;5053470;28;20098;-67
2023/05/11 00:51:56;;;;;;;3.28;1.38;;;;;12.10;98331.00;;;;5054813;28;20041;-69
2023/05/11 00:54:23;;;;;;;2.10;1.65;;;;;12.10;98334.00;;;;5053647;28;20055;-68
2023/05/11 00:56:50;;;;;;;3.63;1.20;;;;;12.20;98327.00;;;;5054944;28;20048;-68
2023/05/11 00:59:17;;;;;;;2.67;0.98;;;;;12.20;98334.00;;;;5053608;28;20099;-68
2023/05/11 01:01:44;;;;;;;2.85;1.30;;;;;12.20;98340.00;;;;5055638;28;20068;-68
2023/05/11 01:04:11;;;;;;;2.33;1.20;;;;;12.00;98340.00;;;;5055424;28;20037;-68
2023/05/11 01:07:14;;;;;;;3.35;1.20;;;;;11.70;98340.00;;;;5054372;28;20049;-68
2023/05/11 01:10:19;;;;;;;2.63;1.23;;;;;11.40;98342.00;;;;5053844;28;20417;-68
2023/05/11 01:12:56;;;;;;;2.00;1.50;;;;;11.30;98348.00;;;;5054061;28;20063;-67
2023/05/11 01:15:35;;;;;;;2.08;1.35;;;;;11.30;98346.00;;;;5038087;28;20124;-67
2023/05/11 01:18:28;;;;;;;2.63;1.70;;;;;11.30;98343.00;;;;5055424;28;20517;-67
2023/05/11 01:21:01;;;;;;;2.38;1.60;;;;;11.20;98340.00;;;;5055540;28;20079;-68
2023/05/11 01:23:42;;;;;;;2.40;1.40;;;;;11.40;98335.00;;;;5038627;28;20140;-68
2023/05/11 01:26:27;;;;;;;3.13;1.42;;;;;11.60;98350.00;;;;5055064;28;20132;-68
2023/05/11 01:29:06;;;;;;;4.65;2.05;;;;;11.70;98351.00;;;;5054113;28;20053;-68
2023/05/11 01:31:34;;;;;;;4.38;1.48;;;;;11.60;98349.00;;;;5037713;28;20055;-69
2023/05/11 01:34:04;;;;;;;2.20;1.40;;;;;11.60;98347.00;;;;5039460;28;20059;-68
2023/05/11 01:36:38;;;;;;;2.88;1.45;;;;;11.50;98356.00;;;;5055312;28;20139;-68
2023/05/11 01:39:08;;;;;;;4.95;1.70;;;;;11.60;98349.00;;;;5053262;28;20041;-68
2023/05/11 01:41:38;;;;;;;4.43;1.48;;;;;11.60;98349.00;;;;5055061;28;20048;-68
2023/05/11 01:44:08;;;;;;;2.53;1.38;;;;;11.60;98347.00;;;;5039465;28;20053;-68
2023/05/11 01:46:35;;;;;;;4.93;1.50;;;;;11.70;98351.00;;;;5057816;28;20044;-68
2023/05/11 01:49:08;;;;;;;4.65;2.17;;;;;11.80;98352.00;;;;5055372;28;20417;-68
2023/05/11 01:51:37;;;;;;;3.60;1.88;;;;;11.70;98347.00;;;;5053711;28;20049;-68
2023/05/11 01:54:08;;;;;;;1.85;1.45;;;;;11.60;98349.00;;;;5053185;28;20049;-68
2023/05/11 01:56:36;;;;;;;3.40;1.48;;;;;11.50;98347.00;;;;5053958;28;20044;-68
2023/05/11 01:59:03;;;;;;;1.55;1.45;;;;;11.60;98342.00;;;;5052663;28;20498;-67
2023/05/11 02:01:34;;;;;;;2.22;1.70;;;;;11.80;98338.00;;;;5052184;28;20052;-68
2023/05/11 02:04:03;;;;;;;2.00;1.67;;;;;11.90;98347.00;;;;5055608;28;20069;-68
2023/05/11 02:06:33;;;;;;;4.57;1.90;;;;;11.90;98347.00;;;;5054304;28;20037;-68
2023/05/11 02:09:02;;;;;;;2.50;1.65;;;;;12.00;98347.00;;;;5052759;28;20049;-69
2023/05/11 02:11:31;;;;;;;3.10;1.88;;;;;12.00;98340.00;;;;5053139;28;20045;-68
2023/05/11 02:13:59;;;;;;;2.47;1.60;;;;;12.00;98345.00;;;;5053950;28;20437;-68
2023/05/11 02:16:28;;;;;;;2.83;1.55;;;;;12.10;98342.00;;;;5053603;28;20465;-68
2023/05/11 02:18:56;;;;;;;3.17;1.67;;;;;12.20;98343.00;;;;5052851;28;20056;-70
2023/05/11 02:21:25;;;;;;;2.08;1.88;;;;;12.30;98339.00;;;;5053103;28;20049;-68
2023/05/11 02:23:53;;;;;;;4.43;2.38;;;;;12.30;98345.00;;;;5053448;28;20049;-67
2023/05/11 02:26:19;;;;;;;3.33;2.80;;;;;12.30;98344.00;;;;5053649;28;20098;-67
2023/05/11 02:28:46;;;;;;;4.18;2.47;;;;;12.40;98344.00;;;;5053394;28;20063;-68
2023/05/11 02:31:19;;;;;;;3.50;3.13;;;;;12.40;98350.00;;;;5053088;28;20107;-68
2023/05/11 02:33:49;;;;;;;2.92;2.50;;;;;12.40;98349.00;;;;5053464;28;20053;-68
2023/05/11 02:36:21;;;;;;;5.13;2.03;;;;;12.40;98351.00;;;;5052996;28;20118;-68
2023/05/11 02:38:53;;;;;;;2.67;1.90;;;;;12.20;98349.00;;;;5055406;28;20051;-68
2023/05/11 02:41:28;;;;;;;4.03;3.00;;;;;12.20;98339.00;;;;5045403;28;20048;-69
2023/05/11 02:43:57;;;;;;;3.33;2.60;;;;;12.30;98341.00;;;;5064197;28;20059;-67
2023/05/11 02:46:28;;;;;;;3.50;2.88;;;;;12.40;98343.00;;;;5065364;28;20048;-68
2023/05/11 02:48:59;;;;;;;3.17;2.80;;;;;12.50;98345.00;;;;5066399;28;20060;-67
2023/05/11 02:51:33;;;;;;;4.13;2.80;;;;;12.50;98351.00;;;;5050728;28;20048;-67
2023/05/11 02:54:00;;;;;;;3.97;3.17;;;;;12.50;98345.00;;;;5065092;28;20045;-68
2023/05/11 02:56:30;;;;;;;5.78;3.83;;;;;12.60;98352.00;;;;5065829;28;20041;-67
2023/05/11 02:58:57;;;;;;;3.85;2.60;;;;;12.50;98347.00;;;;5065521;28;20052;-70
2023/05/11 03:01:25;;;;;;;4.15;2.33;;;;;12.50;98343.00;;;;5049655;28;20116;-67
2023/05/11 03:03:56;;;;;;;3.75;3.20;;;;;12.50;98345.00;;;;5067165;28;20055;-68
2023/05/11 03:06:25;;;;;;;4.65;3.17;;;;;12.50;98345.00;;;;5066875;28;20095;-69
2023/05/11 03:08:51;;;;;;;5.32;2.90;;;;;12.50;98350.00;;;;5069593;28;20079;-67
2023/05/11 03:11:20;;;;;;;4.30;3.60;;;;;12.50;98345.00;;;;5072241;28;20044;-69
2023/05/11 03:13:48;;;;;;;4.47;3.70;;;;;12.40;98345.00;;;;5074660;28;20044;-69
2023/05/11 03:16:17;;;;;;;5.95;3.75;;;;;12.40;98346.00;;;;5059177;28;20049;-67
2023/05/11 03:18:48;;;;;;;6.97;5.03;;;;;12.40;98347.00;;;;5074294;28;20045;-68
2023/05/11 03:21:20;;;;;;;6.22;4.35;;;;;12.40;98351.00;;;;5055238;28;20037;-68
2023/05/11 03:23:48;;;;;;;6.38;4.30;;;;;12.40;98353.00;;;;5073768;28;20206;-66
2023/05/11 03:26:17;;;;;;;5.90;4.68;;;;;12.40;98352.00;;;;5075086;28;20040;-66
2023/05/11 03:28:45;;;;;;;6.72;4.25;;;;;12.30;98353.00;;;;5072326;28;20051;-66
2023/05/11 03:31:12;;;;;;;5.15;4.40;;;;;12.30;98350.00;;;;5074530;28;20032;-67
2023/05/11 03:33:39;;;;;;;6.07;4.35;;;;;12.30;98346.00;;;;5073255;28;20076;-66
2023/05/11 03:36:09;;;;;;;7.13;5.28;;;;;12.20;98339.00;;;;5072402;28;20055;-66
2023/05/11 03:38:36;;;;;;;5.45;4.93;;;;;12.10;98343.00;;;;5056400;28;20049;-67
2023/05/11 03:41:05;;;;;;;6.90;5.30;;;;;12.10;98341.00;;;;5070611;28;20168;-67
2023/05/11 03:43:36;;;;;;;6.05;5.10;;;;;12.10;98342.00;;;;5072918;28;20041;-66
2023/05/11 03:46:03;;;;;;;7.40;5.75;;;;;12.00;98343.00;;;;5073928;28;20104;-67
2023/05/11 03:48:31;;;;;;;7.57;5.60;;;;;12.00;98335.00;;;;5072162;28;20041;-66
2023/05/11 03:50:58;;;;;;;7.72;5.35;;;;;12.10;98332.00;;;;5075176;28;20045;-67
2023/05/11 03:53:25;;;;;;;6.55;5.95;;;;;12.10;98326.00;;;;5074354;28;20112;-66
2023/05/11 03:55:52;;;;;;;9.10;5.82;;;;;12.10;98335.00;;;;5073580;28;20041;-66
2023/05/11 03:58:19;;;;;;;7.28;5.40;;;;;12.20;98331.00;;;;5070278;28;20049;-67
2023/05/11 04:00:45;;;;;;;7.82;6.82;;;;;12.10;98336.00;;;;5069588;28;20033;-66
2023/05/11 04:03:12;;;;;;;7.50;6.63;;;;;12.10;98336.00;;;;5068644;28;20052;-67
2023/05/11 04:05:40;;;;;;;9.70;6.70;;;;;12.10;98346.00;;;;5059226;28;20063;-66
2023/05/11 04:08:09;;;;;;;8.85;6.80;;;;;12.10;98331.00;;;;5074990;28;20037;-66
2023/05/11 04:10:37;;;;;;;9.40;5.90;;;;;12.20;98341.00;;;;5062135;28;20119;-67
2023/05/11 04:13:03;;;;;;;9.80;6.18;;;;;12.30;98339.00;;;;5051371;28;20045;-67
2023/05/11 04:15:30;;;;;;;7.82;5.95;;;;;12.30;98336.00;;;;5051559;28;20060;-66
2023/05/11 04:17:56;;;;;;;7.25;6.00;;;;;12.20;98336.00;;;;5051498;28;20044;-66
2023/05/11 04:20:23;;;;;;;7.15;5.82;;;;;12.30;98335.00;;;;5052326;28;20045;-67
2023/05/11 04:22:50;;;;;;;8.00;6.18;;;;;12.40;98329.00;;;;5051533;28;20045;-67
2023/05/11 04:25:16;;;;;;;7.90;6.07;;;;;12.50;98336.00;;;;5055108;28;20079;-67
2023/05/11 04:27:43;;;;;;;7.10;5.75;;;;;12.40;98336.00;;;;5038215;28;20510;-67
2023/05/11 04:30:10;;;;;;;7.53;6.30;;;;;12.40;98333.00;;;;5055565;28;20404;-67
2023/05/11 04:32:37;;;;;;;7.65;5.50;;;;;12.40;98338.00;;;;5055035;28;20049;-67
2023/05/11 04:35:04;;;;;;;8.88;5.82;;;;;12.40;98335.00;;;;5054861;28;20144;-67
2023/05/11 04:37:34;;;;;;;7.30;5.60;;;;;12.50;98336.00;;;;5055486;28;20505;-68
2023/05/11 04:40:03;;;;;;;8.30;5.70;;;;;12.50;98347.00;;;;5055176;28;20048;-67
2023/05/11 04:42:35;;;;;;;7.90;6.07;;;;;12.50;98347.00;;;;5039660;28;20414;-68
2023/05/11 04:45:04;;;;;;;7.38;6.07;;;;;12.60;98354.00;;;;5054999;28;20429;-69
2023/05/11 04:47:31;;;;;;;9.88;6.10;;;;;12.70;98357.00;;;;5054577;28;20164;-68
2023/05/11 04:49:58;;;;;;;8.75;5.55;;;;;12.70;98350.00;;;;5037731;28;20041;-69
2023/05/11 04:52:24;;;;;;;7.38;5.95;;;;;12.80;98350.00;;;;5054340;28;20056;-68
2023/05/11 04:54:51;;;;;;;8.57;5.88;;;;;12.90;98348.00;;;;5054365;28;20120;-68
2023/05/11 04:57:18;;;;;;;10.70;6.30;;;;;13.00;98353.00;;;;5055945;28;20116;-67
2023/05/11 04:59:46;;;;;;;8.48;5.72;;;;;13.10;98353.00;;;;5054545;28;20102;-68
2023/05/11 05:02:12;;;;;;;7.93;5.78;;;;;13.10;98355.00;;;;5053779;28;20136;-67
2023/05/11 05:04:39;;;;;;;8.63;5.47;;;;;13.10;98359.00;;;;5054902;28;20513;-68
2023/05/11 05:07:06;;;;;;;7.18;5.65;;;;;13.10;98358.00;;;;5055015;28;20041;-68
2023/05/11 05:09:32;;;;;;;6.22;5.50;;;;;13.00;98369.00;;;;5054383;28;20425;-67
2023/05/11 05:12:00;;;;;;;11.77;5.93;;;;;13.00;98364.00;;;;5053804;28;20095;-69
2023/05/11 05:14:26;;;;;;;6.75;5.60;;;;;13.00;98368.00;;;;5054915;28;20036;-68
2023/05/11 05:16:53;;;;;;;7.55;5.35;;;;;13.00;98364.00;;;;5054284;28;20484;-67
2023/05/11 05:19:20;;;;;;;6.30;5.50;;;;;13.10;98362.00;;;;5036768;28;20048;-67
2023/05/11 05:21:48;;;;;;;8.38;5.75;;;;;13.10;98369.00;;;;5053296;28;20052;-67
2023/05/11 05:24:15;;;;;;;8.98;6.25;;;;;13.10;98371.00;;;;5054365;28;20108;-68
2023/05/11 05:26:42;;;;;;;6.57;5.45;;;;;13.10;98369.00;;;;5054555;28;20060;-68
2023/05/11 05:29:10;;;;;;;7.05;5.53;;;;;13.10;98372.00;;;;5036567;28;20136;-67
2023/05/11 05:31:37;;;;;;;9.90;5.90;;;;;13.10;98379.00;;;;5053096;28;20450;-67
2023/05/11 05:34:03;;;;;;;7.85;5.63;;;;;13.10;98365.00;;;;5053388;28;20466;-67
2023/05/11 05:36:31;;;;;;;6.38;5.68;;;;;13.10;98369.00;;;;5052931;28;20083;-68
2023/05/11 05:38:57;;;;;;;7.13;5.93;;;;;13.10;98364.00;;;;5053666;28;20037;-68
2023/05/11 05:41:24;;;;;;;9.23;6.00;;;;;13.00;98366.00;;;;5036489;28;20041;-69
2023/05/11 05:43:51;;;;;;;7.85;6.35;;;;;12.90;98367.00;;;;5056689;28;20045;-68
2023/05/11 05:46:17;;;;;;;6.30;5.20;;;;;12.80;98364.00;;;;5056838;28;20046;-68
2023/05/11 05:48:45;;;;;;;7.90;5.38;;;;;12.80;98368.00;;;;5055123;28;20051;-67
2023/05/11 05:51:12;;;;;;;6.70;5.20;;;;;12.80;98366.00;;;;5054006;28;20029;-67
2023/05/11 05:53:38;;;;;;;7.03;5.85;;;;;12.70;98374.00;;;;5036402;28;20060;-67
2023/05/11 05:56:05;;;;;;;9.55;6.65;;;;;12.70;98367.00;;;;5054204;28;20048;-67
2023/05/11 05:58:32;;;;;;;8.18;5.85;;;;;12.80;98372.00;;;;5035937;28;20480;-66
2023/05/11 06:00:59;;;;;;;7.30;5.65;;;;;13.00;98380.00;;;;5052277;28;20060;-66
2023/05/11 06:03:26;;;;;;;7.47;6.20;;;;;13.00;98378.00;;;;5036119;28;20041;-66
2023/05/11 06:05:55;;;;;;;8.48;5.88;;;;;13.10;98381.00;;;;5052492;28;20052;-66
2023/05/11 06:08:23;;;;;;;9.98;6.47;;;;;13.00;98383.00;;;;5052445;28;20048;-67
2023/05/11 06:10:49;;;;;;;8.68;6.18;;;;;13.10;98376.00;;;;5052291;28;20045;-67
2023/05/11 06:13:16;;;;;;;9.15;6.32;;;;;13.20;98377.00;;;;5052687;28;20137;-66
2023/05/11 06:15:43;;;;;;;8.57;6.47;;;;;13.20;98388.00;;;;5052521;28;20444;-67
2023/05/11 06:18:21;;;;;;;8.80;6.72;;;;;13.10;98393.00;;;;5052344;28;20164;-67
2023/05/11 06:20:48;;;;;;;10.25;6.47;;;;;13.10;98390.00;;;;5052160;28;20049;-67
2023/05/11 06:23:16;;;;;;;13.48;6.90;;;;;13.10;98388.00;;;;5052394;28;20658;-67
2023/05/11 06:25:43;;;;;;;9.38;6.50;;;;;13.30;98390.00;;;;5052380;28;20110;-67
2023/05/11 06:28:10;;;;;;;10.90;6.82;;;;;13.40;98383.00;;;;5052697;28;20052;-67
2023/05/11 06:30:37;;;;;;;10.45;6.43;;;;;13.50;98394.00;;;;5051608;28;20041;-67
2023/05/11 06:33:06;;;;;;;9.55;6.57;;;;;13.40;98387.00;;;;5052155;28;20044;-67
2023/05/11 06:35:36;;;;;;;10.25;6.93;;;;;13.40;98392.00;;;;5051935;28;20041;-67
2023/05/11 06:38:05;;;;;;;9.05;7.57;;;;;13.40;98386.00;;;;5052134;28;20502;-67
2023/05/11 06:40:34;;;;;;;11.38;7.65;;;;;13.40;98391.00;;;;5035428;28;20551;-67
2023/05/11 06:43:00;;;;;;;9.90;8.02;;;;;13.50;98385.00;;;;5053201;28;20497;-67
2023/05/11 06:45:44;;;;;;;9.25;7.18;;;;;13.60;98392.00;;;;5052293;28;20144;-67
2023/05/11 06:48:11;;;;;;;11.35;7.32;;;;;13.60;98390.00;;;;5051141;28;20436;-67
2023/05/11 06:50:37;;;;;;;11.60;7.43;;;;;13.70;98389.00;;;;5052632;28;20051;-67
2023/05/11 06:53:04;;;;;;;9.88;6.78;;;;;13.70;98385.00;;;;5035033;28;20055;-67
2023/05/11 06:55:31;;;;;;;6.90;5.85;;;;;13.80;98386.00;;;;5052834;28;20048;-66
2023/05/11 06:57:58;;;;;;;10.60;6.82;;;;;13.90;98384.00;;;;5052420;28;20048;-67
2023/05/11 07:00:25;;;;;;;8.43;6.60;;;;;14.00;98371.00;;;;5051675;28;20441;-66
2023/05/11 07:02:51;;;;;;;8.40;6.78;;;;;14.00;98390.00;;;;5051496;28;20053;-67
2023/05/11 07:05:18;;;;;;;8.32;6.53;;;;;14.10;98384.00;;;;5052528;28;20053;-67
2023/05/11 07:07:45;;;;;;;10.48;7.05;;;;;14.10;98383.00;;;;5051623;28;20060;-67
2023/05/11 07:10:12;;;;;;;8.40;6.35;;;;;14.10;98385.00;;;;5051050;28;20036;-67
2023/05/11 07:12:38;;;;;;;11.13;6.93;;;;;14.10;98388.00;;;;5052821;28;20433;-68
2023/05/11 07:15:06;;;;;;;7.85;6.30;;;;;14.20;98389.00;;;;5052895;28;20048;-65
2023/05/11 07:17:32;;;;;;;8.38;5.88;;;;;14.50;98388.00;;;;5060898;28;20049;-66
2023/05/11 07:19:59;;;;;;;9.60;6.90;;;;;14.70;98387.00;;;;5067874;28;20506;-67
2023/05/11 07:22:25;;;;;;;8.65;6.07;;;;;14.80;98378.00;;;;5057021;28;20056;-64
2023/05/11 07:24:52;;;;;;;7.47;5.97;;;;;14.90;98373.00;;;;5052254;28;20048;-64
2023/05/11 07:27:18;;;;;;;9.73;6.00;;;;;15.00;98379.00;;;;5051592;28;20264;-66
2023/05/11 07:29:45;;;;;;;8.13;5.90;;;;;15.10;98391.00;;;;5051989;28;20053;-67
2023/05/11 07:32:12;;;;;;;7.78;6.00;;;;;15.20;98390.00;;;;5051027;28;20379;-67
2023/05/11 07:34:40;;;;;;;6.40;4.88;;;;;15.20;98383.00;;;;5050826;28;20505;-67
2023/05/11 07:37:07;;;;;;;10.10;4.95;;;;;15.20;98382.00;;;;5050988;28;20466;-67
2023/05/11 07:39:33;;;;;;;5.00;3.92;;;;;15.30;98376.00;;;;5051952;28;20033;-67
2023/05/11 07:42:00;;;;;;;4.47;4.07;;;;;15.30;98378.00;;;;5052011;28;20048;-66
2023/05/11 07:44:27;;;;;;;5.32;4.43;;;;;15.30;98385.00;;;;5050912;28;20064;-67
2023/05/11 07:46:53;;;;;;;7.32;4.68;;;;;15.40;98381.00;;;;5051023;28;20391;-67
2023/05/11 07:49:20;;;;;;;4.93;4.30;;;;;15.50;98378.00;;;;5050348;28;20521;-67
2023/05/11 07:52:00;;;;;;;6.47;5.05;;;;;15.70;98376.00;;;;5050803;28;20041;-67
2023/05/11 07:54:27;;;;;;;6.18;4.45;;;;;15.90;98377.00;;;;5050958;28;20590;-67
2023/05/11 07:56:53;;;;;;;7.57;4.22;;;;;15.90;98380.00;;;;5034228;28;20056;-67
2023/05/11 07:59:20;;;;;;;4.97;4.47;;;;;15.90;98375.00;;;;5054933;28;20049;-67
2023/05/11 08:01:46;;;;;;;5.15;4.20;;;;;16.00;98378.00;;;;5055988;28;20564;-66
2023/05/11 08:04:13;;;;;;;4.80;4.30;;;;;16.10;98373.00;;;;5054576;28;20048;-67
2023/05/11 08:06:40;;;;;;;9.13;4.65;;;;;16.20;98376.00;;;;5056225;28;20049;-67
2023/05/11 08:09:06;;;;;;;6.85;3.95;;;;;16.30;98377.00;;;;5056441;28;20049;-67
2023/05/11 08:11:33;;;;;;;5.38;3.58;;;;;16.30;98369.00;;;;5056133;28;20045;-67
2023/05/11 08:13:59;;;;;;;5.00;3.63;;;;;16.30;98369.00;;;;5054480;28;20106;-67
2023/05/11 08:16:26;;;;;;;4.80;3.45;;;;;16.40;98370.00;;;;5055684;28;20485;-67
2023/05/11 08:18:52;;;;;;;7.00;4.15;;;;;16.50;98376.00;;;;5055388;28;20055;-65
2023/05/11 08:21:19;;;;;;;6.93;3.80;;;;;16.60;98381.00;;;;5055447;28;20520;-65
2023/05/11 08:23:45;;;;;;;4.90;3.65;;;;;16.60;98376.00;;;;5055444;28;20424;-66
2023/05/11 08:26:12;;;;;;;4.60;4.20;;;;;16.60;98377.00;;;;5054404;28;20044;-65
2023/05/11 08:28:38;;;;;;;4.43;3.47;;;;;16.40;98383.00;;;;5054402;28;20069;-66
2023/05/11 08:31:05;;;;;;;4.20;3.45;;;;;16.60;98378.00;;;;5053870;28;20394;-66
2023/05/11 08:33:32;;;;;;;4.93;3.35;;;;;16.70;98379.00;;;;5055397;28;20374;-65
2023/05/11 08:36:05;;;;;;;4.28;3.58;;;;;16.80;98380.00;;;;5055316;28;20556;-66
2023/05/11 08:38:32;;;;;;;3.70;3.40;;;;;16.80;98381.00;;;;5055284;28;20413;-66
2023/05/11 08:41:00;;;;;;;3.70;3.30;;;;;16.80;98385.00;;;;5053944;28;20127;-66
2023/05/11 08:43:28;;;;;;;5.43;3.17;;;;;16.90;98379.00;;;;5054380;28;20045;-66
2023/05/11 08:45:59;;;;;;;8.85;4.72;;;;;16.90;98385.00;;;;5054385;28;20045;-65
2023/05/11 08:48:26;;;;;;;5.35;3.17;;;;;16.80;98385.00;;;;5055758;28;20063;-66
2023/05/11 08:50:53;;;;;;;3.17;2.72;;;;;17.00;98382.00;;;;5055659;28;20098;-66
2023/05/11 08:53:19;;;;;;;2.80;2.60;;;;;17.10;98381.00;;;;5055729;28;20460;-66
2023/05/11 08:55:47;;;;;;;5.97;2.78;;;;;17.20;98382.00;;;;5054905;28;20098;-68
2023/05/11 08:58:18;;;;;;;4.22;2.75;;;;;17.30;98381.00;;;;5055545;28;20044;-67
2023/05/11 09:00:46;;;;;;;6.25;2.97;;;;;17.40;98381.00;;;;5038337;28;20069;-67
2023/05/11 09:03:13;;;;;;;2.80;2.50;;;;;17.50;98378.00;;;;5037823;28;20056;-66
2023/05/11 09:05:41;;;;;;;2.95;2.75;;;;;17.20;98379.00;;;;5055879;28;20060;-67
2023/05/11 09:08:11;;;;;;;3.50;2.97;;;;;17.00;98392.00;;;;5054250;28;20056;-66
2023/05/11 09:10:37;;;;;;;9.15;5.63;;;;;17.20;98395.00;;;;5054628;28;20118;-67
2023/05/11 09:13:04;;;;;;;3.20;2.70;;;;;17.30;98385.00;;;;5053935;28;20098;-67
2023/05/11 09:15:31;;;;;;;5.13;2.50;;;;;17.40;98394.00;;;;5056504;28;20041;-68
2023/05/11 09:18:03;;;;;;;2.40;2.20;;;;;17.40;98390.00;;;;5055202;28;20076;-67
2023/05/11 09:20:31;;;;;;;2.88;2.47;;;;;17.50;98398.00;;;;5037489;28;20045;-67
2023/05/11 09:22:59;;;;;;;2.88;2.53;;;;;17.60;98385.00;;;;5054063;28;20068;-67
2023/05/11 09:25:29;;;;;;;4.00;2.47;;;;;17.70;98391.00;;;;5037541;28;20517;-67
2023/05/11 09:27:58;;;;;;;3.22;2.92;;;;;17.70;98391.00;;;;5055252;28;20048;-66
2023/05/11 09:30:24;;;;;;;3.22;1.98;;;;;17.70;98389.00;;;;5054967;28;20044;-67
2023/05/11 09:32:56;;;;;;;3.20;2.05;;;;;17.70;98387.00;;;;5054905;28;20041;-66
2023/05/11 09:35:31;;;;;;;2.58;2.13;;;;;17.80;98399.00;;;;5055327;28;20079;-66
2023/05/11 09:38:01;;;;;;;3.15;2.40;;;;;17.70;98398.00;;;;5053578;28;20110;-67
2023/05/11 09:40:28;;;;;;;1.98;1.77;;;;;17.60;98396.00;;;;5054356;28;20045;-67
2023/05/11 09:43:01;;;;;;;3.05;2.05;;;;;17.50;98389.00;;;;5053134;28;20136;-66
2023/05/11 09:45:39;;;;;;;2.22;1.92;;;;;17.40;98394.00;;;;5053371;28;20049;-66
2023/05/11 09:48:07;;;;;;;2.95;2.17;;;;;17.30;98388.00;;;;5054682;28;20123;-66
2023/05/11 09:50:34;;;;;;;4.57;1.77;;;;;17.50;98388.00;;;;5036231;28;20493;-67
2023/05/11 09:53:01;;;;;;;2.95;1.95;;;;;17.50;98387.00;;;;5052671;28;20068;-67
2023/05/11 09:55:29;;;;;;;2.67;1.90;;;;;17.70;98378.00;;;;5036318;28;20049;-67
2023/05/11 09:57:57;;;;;;;2.72;1.92;;;;;17.90;98381.00;;;;5052960;28;20041;-67
2023/05/11 10:00:24;;;;;;;2.55;1.80;;;;;18.10;98377.00;;;;5052607;28;20060;-67
2023/05/11 10:03:05;;;;;;;1.40;1.30;;;;;18.30;98383.00;;;;5052829;28;20045;-65
2023/05/11 10:05:34;;;;;;;1.70;1.60;;;;;18.30;98382.00;;;;5053927;28;20053;-66
2023/05/11 10:08:02;;;;;;;2.47;1.58;;;;;18.40;98387.00;;;;5053877;28;20075;-65
2023/05/11 10:10:31;;;;;;;2.03;1.42;;;;;18.60;98382.00;;;;5052419;28;20049;-66
2023/05/11 10:13:00;;;;;;;2.25;1.30;;;;;18.70;98386.00;;;;5052640;28;20487;-66
2023/05/11 10:15:27;;;;;;;3.85;1.20;;;;;18.90;98383.00;;;;5053717;28;20444;-67
2023/05/11 10:17:55;;;;;;;2.67;1.00;;;;;18.80;98384.00;;;;5052488;28;20049;-67
2023/05/11 10:20:23;;;;;;;1.65;1.30;;;;;18.90;98380.00;;;;5053674;28;20452;-67
2023/05/11 10:22:54;;;;;;;1.90;1.08;;;;;19.00;98382.00;;;;5052669;28;20041;-67
2023/05/11 10:25:22;;;;;;;1.35;1.25;;;;;18.90;98380.00;;;;5054957;28;20442;-66
2023/05/11 10:27:50;;;;;;;1.33;1.23;;;;;18.70;98381.00;;;;5057974;28;20048;-68
2023/05/11 10:30:17;;;;;;;12.80;2.47;;;;;18.70;98379.00;;;;5054916;28;20045;-67
2023/05/11 10:32:46;;;;;;;1.92;1.15;;;;;18.70;98381.00;;;;5053163;28;20044;-67
2023/05/11 10:35:12;;;;;;;1.63;1.30;;;;;18.60;98374.00;;;;5053465;28;20489;-68
2023/05/11 10:37:41;;;;;;;1.52;1.30;;;;;18.40;98374.00;;;;5052246;28;20051;-67
2023/05/11 10:40:09;;;;;;;1.77;1.20;;;;;18.50;98371.00;;;;5051931;28;20072;-66
2023/05/11 10:43:04;;;;;;;2.38;1.67;;;;;18.40;98363.00;;;;5051867;28;20047;-67
2023/05/11 10:45:35;;;;;;;1.52;1.42;;;;;18.40;98360.00;;;;5053216;28;20056;-66
2023/05/11 10:48:43;;;;;;;1.20;1.10;;;;;18.20;98370.00;;;;5053197;28;20041;-67
2023/05/11 10:51:38;;;;;;;1.25;1.08;;;;;18.30;98365.00;;;;5040542;28;20064;-66
2023/05/11 10:54:32;;;;;;;4.45;1.30;;;;;18.80;98371.00;;;;5051704;28;20426;-67
2023/05/11 10:57:23;;;;;;;1.20;1.10;;;;;18.60;98363.00;;;;5051688;28;20118;-67
2023/05/11 11:00:34;;;;;;;2.53;1.50;;;;;18.40;98371.00;;;;5051705;28;20041;-67
2023/05/11 11:03:11;;;;;;;1.13;0.93;;;;;18.40;98360.00;;;;5052949;28;20518;-67
2023/05/11 11:05:39;;;;;;;2.22;1.50;;;;;18.70;98362.00;;;;5051319;28;20040;-67
2023/05/11 11:08:08;;;;;;;1.48;1.23;;;;;18.90;98358.00;;;;5051324;28;20045;-66
2023/05/11 11:10:37;;;;;;;1.10;1.00;;;;;18.70;98356.00;;;;5052585;28;20055;-66
2023/05/11 11:13:06;;;;;;;1.08;0.90;;;;;18.70;98356.00;;;;5051022;28;20053;-66
2023/05/11 11:15:54;;;;;;;2.13;1.30;;;;;18.40;98366.00;;;;5051407;28;20055;-67
2023/05/11 11:18:28;;;;;;;2.97;1.00;;;;;18.50;98359.00;;;;5052052;28;20041;-67
2023/05/11 11:20:57;;;;;;;2.47;0.95;;;;;18.80;98368.00;;;;5067131;28;20080;-67
2023/05/11 11:23:40;;;;;;;1.10;1.05;;;;;19.10;98348.00;;;;5062416;28;20273;-67
2023/05/11 11:26:08;;;;;;;1.98;0.85;;;;;19.30;98350.00;;;;5052703;28;20498;-67
2023/05/11 11:28:53;;;;;;;1.15;1.10;;;;;19.60;98348.00;;;;5051025;28;20051;-67
2023/05/11 11:31:26;;;;;;;1.10;1.00;;;;;19.70;98353.00;;;;5052131;28;20131;-67
2023/05/11 11:33:57;;;;;;;2.53;1.10;;;;;19.70;98348.00;;;;5052092;28;20055;-67
2023/05/11 11:36:55;;;;;;;1.60;1.10;;;;;19.60;98344.00;;;;5052660;28;20048;-67
2023/05/11 11:39:24;;;;;;;1.55;1.20;;;;;19.50;98342.00;;;;5050839;28;20098;-67
2023/05/11 11:42:00;;;;;;;4.72;1.20;;;;;19.90;98346.00;;;;5051569;28;20044;-67
2023/05/11 11:44:27;;;;;;;2.40;1.20;;;;;20.10;98342.00;;;;5050739;28;20052;-68
2023/05/11 11:47:14;;;;;;;1.30;1.10;;;;;20.40;98344.00;;;;5050956;28;20041;-66
2023/05/11 11:49:43;;;;;;;2.05;1.85;;;;;20.50;98344.00;;;;5050566;28;20055;-66
2023/05/11 11:52:33;;;;;;;1.65;1.00;;;;;20.70;98340.00;;;;5051831;28;20045;-66
2023/05/11 11:55:02;;;;;;;1.95;1.40;;;;;20.80;98333.00;;;;5052186;28;20052;-66
2023/05/11 11:57:32;;;;;;;2.15;1.10;;;;;20.80;98335.00;;;;5052101;28;20041;-65
2023/05/11 12:00:09;;;;;;;1.80;1.00;;;;;20.90;98332.00;;;;5051662;28;20041;-66
2023/05/11 12:02:44;;;;;;;2.60;1.13;;;;;21.00;98334.00;;;;5052023;28;20037;-66
2023/05/11 12:05:20;;;;;;;1.88;1.10;;;;;21.10;98330.00;;;;5051666;28;20041;-66
2023/05/11 12:07:50;;;;;;;5.30;1.13;;;;;20.80;98334.00;;;;5052311;28;20044;-67
2023/05/11 12:10:18;;;;;;;2.90;1.17;;;;;20.50;98332.00;;;;5050529;28;20543;-66
2023/05/11 12:12:47;;;;;;;1.17;0.90;;;;;20.30;98326.00;;;;5050884;28;20052;-66
2023/05/11 12:15:27;;;;;;;2.83;1.20;;;;;20.20;98322.00;;;;5033997;28;20056;-66
2023/05/11 12:17:55;;;;;;;3.22;1.00;;;;;20.20;98321.00;;;;5051840;28;20052;-66
2023/05/11 12:20:22;;;;;;;1.23;1.05;;;;;20.30;98317.00;;;;5051763;28;20558;-66
2023/05/11 12:22:49;;;;;;;54.50;37.50;;;;;20.30;98316.00;;;;5050355;28;20041;-66
2023/05/11 12:25:17;;;;;;;5.28;1.90;;;;;20.40;98319.00;;;;5051827;28;20041;-67
2023/05/11 12:27:47;;;;;;;0.88;0.88;;;;;20.50;98321.00;;;;5050827;28;20046;-66